Observations

82.0 °F / 27.8 °C
ENE at 21 MPH
84%
77.0°F / 25.0 °C
29.77" (1008 mb)
10 mile(s)
partly cloudy
2020.07.10 1840 UTC

Observations

Surface


Raw METARs

2020/07/10 18:40
PKWA 101840Z AUTO 07018KT 10SM SCT024 SCT046 28/25 A2977 RMK AO2 T02780250

Translated METAR

Kwajalein, Bucholz AAF, Kwajalein KMR ATOL Airport, Marshall Islands (PKWA) 08-43N 167-44E 2M
Jul 10, 2020 - 02:40 PM EDT / 2020.07.10 1840 UTC
Wind: from the ENE (070 degrees) at 21 MPH (18 KT):0
Visibility: 10 mile(s):0
Sky conditions: partly cloudy
Temperature: 82.0 F (27.8 C)
Dew Point: 77.0 F (25.0 C)
Relative Humidity: 84%
Pressure (altimeter): 29.77 in. Hg (1008 hPa)
ob: PKWA 101840Z AUTO 07018KT 10SM SCT024 SCT046 28/25 A2977 RMK AO2 T02780250
cycle: 18



Upper Air


Latest Skew-T

Skew T Diagram

Latest Data File